Time;durP1;ratioP1;P1;durP2;ratioP2;P2;SDS_P1;SDS_P2;PMS_P1;PMS_P2;Temp;Humidity;BMP_temperature;BMP_pressure;BME280_temperature;BME280_humidity;BME280_pressure;Samples;Min_cycle;Max_cycle;Signal;HPM_P1;HPM_P2
2024/01/28 00:00:55;;;;;;;13.73;8.27;;;1.50;99.90;;;-141.84;94.01;91049.97;4983736;28;20274;-64
2024/01/28 00:03:24;;;;;;;14.40;7.73;;;1.40;99.90;;;-141.84;95.51;95820.25;4981360;28;20220;-65
2024/01/28 00:05:52;;;;;;;14.87;7.80;;;1.40;99.90;;;-141.84;96.51;97676.88;4981551;28;20419;-65
2024/01/28 00:08:23;;;;;;;16.93;8.57;;;1.30;99.90;;;-141.84;98.01;100861.66;4982445;28;20697;-65
2024/01/28 00:10:54;;;;;;;12.87;7.90;;;1.20;99.90;;;-141.84;96.26;99534.38;4974663;28;20286;-65
2024/01/28 00:13:24;;;;;;;15.07;7.80;;;1.30;99.90;;;-141.84;94.82;95555.09;4981273;28;20236;-64
2024/01/28 00:15:53;;;;;;;13.43;8.40;;;1.40;99.90;;;-141.84;93.12;90785.09;4983544;28;20322;-65
2024/01/28 00:18:22;;;;;;;13.53;8.30;;;1.30;99.90;;;-141.84;93.32;89725.88;4983765;28;20223;-65
2024/01/28 00:20:51;;;;;;;13.37;9.27;;;1.30;99.90;;;-141.84;94.72;93434.41;4983721;28;20206;-65
2024/01/28 00:23:20;;;;;;;15.93;9.00;;;1.20;99.90;;;-141.84;95.75;96350.63;4979343;28;20247;-65
2024/01/28 00:25:48;;;;;;;13.80;8.50;;;1.30;99.90;;;-141.84;94.13;92639.44;4978269;28;20716;-65
2024/01/28 00:28:18;;;;;;;14.07;8.47;;;1.20;99.90;;;-141.84;95.96;96085.44;4975315;28;20313;-65
2024/01/28 00:30:46;;;;;;;13.80;7.80;;;1.20;99.90;;;-141.84;98.21;101127.16;4983697;28;20306;-65
2024/01/28 00:33:14;;;;;;;15.10;8.60;;;1.20;99.90;;;-141.84;98.57;103517.56;4983538;28;20266;-65
2024/01/28 00:35:43;;;;;;;13.97;8.07;;;1.10;99.90;;;-141.84;97.89;102720.59;4982993;28;20239;-65
2024/01/28 00:38:11;;;;;;;14.33;8.50;;;1.10;99.90;;;-141.84;97.72;100861.66;4982984;28;20303;-65
2024/01/28 00:40:39;;;;;;;14.53;7.73;;;1.10;99.90;;;-141.84;98.05;101127.16;4982107;28;20232;-65
2024/01/28 00:43:07;;;;;;;13.20;8.13;;;1.10;99.90;;;-141.84;99.68;104048.94;4981760;28;20689;-65
2024/01/28 00:45:41;;;;;;;13.43;8.07;;;1.00;99.90;;;-141.84;100.00;107504.66;4978815;28;20227;-64
2024/01/28 00:48:09;;;;;;;14.07;8.00;;;1.00;99.90;;;-141.84;100.00;109632.72;4988630;28;20257;-65
2024/01/28 00:50:38;;;;;;;15.80;7.97;;;1.00;99.90;;;-141.84;94.57;96350.63;4983508;28;20223;-65
2024/01/28 00:53:06;;;;;;;12.20;7.83;;;1.20;99.90;;;-141.84;92.92;89461.13;4982966;28;20727;-65
2024/01/28 00:55:34;;;;;;;17.07;8.33;;;1.30;99.90;;;-141.84;94.15;91579.72;4982410;28;20235;-65
2024/01/28 00:58:03;;;;;;;14.97;8.43;;;1.30;99.90;;;-141.84;92.42;90255.47;4972190;28;20568;-65
2024/01/28 01:00:31;;;;;;;13.70;8.20;;;1.40;99.90;;;-141.84;93.01;88402.22;4982632;28;20852;-64
2024/01/28 01:03:03;;;;;;;12.67;8.37;;;1.30;99.90;;;-141.84;94.82;93964.47;4982410;28;20826;-64
2024/01/28 01:05:32;;;;;;;16.57;8.17;;;1.30;99.90;;;-141.84;95.76;96350.63;4980781;28;20295;-65
2024/01/28 01:08:00;;;;;;;13.83;8.10;;;1.20;99.90;;;-141.84;96.97;99268.97;4982516;28;20234;-64
2024/01/28 01:10:29;;;;;;;15.60;8.37;;;1.20;99.90;;;-141.84;95.97;97146.31;4980364;28;20307;-65
2024/01/28 01:12:57;;;;;;;12.70;8.63;;;1.20;99.90;;;-141.84;97.12;99003.56;4982636;28;20269;-65
2024/01/28 01:15:25;;;;;;;14.80;8.47;;;1.10;99.90;;;-141.84;98.32;101392.69;4982637;28;20251;-65
2024/01/28 01:17:53;;;;;;;15.27;8.50;;;1.00;99.90;;;-141.84;99.54;104314.66;4980074;28;20725;-65
2024/01/28 01:20:23;;;;;;;13.47;7.90;;;1.00;99.90;;;-141.84;100.00;106175.19;4983277;28;20207;-65
2024/01/28 01:22:53;;;;;;;11.77;7.50;;;1.00;99.90;;;-141.84;100.00;108834.56;4982450;28;20231;-65
2024/01/28 01:25:21;;;;;;;13.30;8.70;;;0.80;99.90;;;-141.84;100.00;111495.69;4971941;28;20270;-64
2024/01/28 01:27:52;;;;;;;13.43;7.97;;;0.80;99.90;;;-141.84;100.00;112028.13;4979726;28;20299;-66
2024/01/28 01:30:20;;;;;;;13.67;8.17;;;0.80;99.90;;;-141.84;100.00;112560.63;4980628;28;20768;-65
2024/01/28 01:32:49;;;;;;;12.57;8.30;;;0.80;99.90;;;-141.84;100.00;113359.50;4983222;28;20200;-64
2024/01/28 01:35:17;;;;;;;11.60;7.93;;;0.80;99.90;;;-141.84;100.00;114691.31;4985745;28;20212;-64
2024/01/28 01:37:47;;;;;;;18.67;8.90;;;0.70;99.90;;;-141.84;100.00;115224.16;4982260;28;20235;-64
2024/01/28 01:40:15;;;;;;;14.33;7.80;;;0.80;99.90;;;-141.84;100.00;113625.81;4984616;28;20732;-65
2024/01/28 01:42:44;;;;;;;11.07;7.37;;;0.90;99.90;;;-141.84;100.00;113359.50;4979177;28;20278;-64
2024/01/28 01:45:12;;;;;;;15.50;7.90;;;0.90;99.90;;;-141.84;100.00;113625.81;4979496;28;20224;-66
2024/01/28 01:47:42;;;;;;;12.57;7.63;;;0.80;99.90;;;-141.84;100.00;114158.53;4979718;28;20682;-64
2024/01/28 01:50:12;;;;;;;12.07;7.73;;;0.90;99.90;;;-141.84;100.00;114691.31;4978656;28;20294;-65
2024/01/28 01:52:43;;;;;;;15.00;8.13;;;0.80;99.90;;;-141.84;100.00;115224.16;4986364;28;20270;-65
2024/01/28 01:55:13;;;;;;;11.07;8.10;;;0.80;99.90;;;-141.84;100.00;115757.06;4979603;28;20732;-64
2024/01/28 01:57:43;;;;;;;12.50;8.37;;;0.70;99.90;;;-141.84;100.00;116290.06;4973318;28;20255;-65
2024/01/28 02:00:14;;;;;;;15.80;7.93;;;0.80;99.90;;;-141.84;100.00;117089.69;4979472;28;20218;-64
2024/01/28 02:02:46;;;;;;;14.83;7.93;;;0.70;99.90;;;-141.84;100.00;117622.84;4978789;28;20199;-63
2024/01/28 02:05:15;;;;;;;14.33;7.80;;;0.70;99.90;;;-141.84;100.00;117356.25;4981854;28;20196;-65
2024/01/28 02:07:44;;;;;;;14.37;7.97;;;0.80;99.90;;;-141.84;100.00;115224.16;4976687;28;20224;-64
2024/01/28 02:10:14;;;;;;;17.13;8.10;;;0.80;99.90;;;-141.84;100.00;113892.16;4974254;28;20299;-65
2024/01/28 02:12:43;;;;;;;13.20;7.33;;;0.80;99.90;;;-141.84;100.00;114957.72;4968896;28;20239;-65
2024/01/28 02:15:12;;;;;;;11.23;8.20;;;0.70;99.90;;;-141.84;100.00;116023.56;4972513;28;20327;-65
2024/01/28 02:17:40;;;;;;;16.27;7.77;;;0.60;99.90;;;-141.84;100.00;117089.69;4972236;28;20266;-65
2024/01/28 02:20:10;;;;;;;15.17;7.47;;;0.60;99.90;;;-141.84;100.00;117622.84;4981793;28;20224;-65
2024/01/28 02:22:39;;;;;;;14.43;8.00;;;0.60;99.90;;;-141.84;100.00;118156.06;4981380;28;20310;-65
2024/01/28 02:25:09;;;;;;;14.27;7.80;;;0.60;99.90;;;-141.84;100.00;118422.72;4981643;28;20251;-64
2024/01/28 02:27:41;;;;;;;14.77;7.97;;;0.60;99.90;;;-141.84;100.00;118689.38;4986759;28;20234;-63
2024/01/28 02:30:10;;;;;;;16.07;7.87;;;0.60;99.90;;;-141.84;100.00;118156.06;4979314;28;20298;-66
2024/01/28 02:32:47;;;;;;;12.40;7.13;;;0.70;99.90;;;-141.84;100.00;117622.84;4981517;28;20703;-64
2024/01/28 02:35:16;;;;;;;13.10;8.23;;;0.70;99.90;;;-141.84;100.00;118156.06;4983642;28;20212;-65
2024/01/28 02:37:44;;;;;;;15.33;7.47;;;0.60;99.90;;;-141.84;100.00;118422.72;4986770;28;20233;-64
2024/01/28 02:40:14;;;;;;;13.80;8.20;;;0.90;99.90;;;-141.84;100.00;114957.72;4978395;28;20243;-63
2024/01/28 02:42:42;;;;;;;13.20;7.03;;;0.80;99.90;;;-141.84;100.00;112826.88;4981190;28;20673;-65
2024/01/28 02:45:11;;;;;;;15.90;8.20;;;0.80;99.90;;;-141.84;100.00;113625.81;4986380;28;20584;-63
2024/01/28 02:47:39;;;;;;;14.37;7.73;;;0.80;99.90;;;-141.84;100.00;115224.16;4986572;28;20200;-64
2024/01/28 02:50:08;;;;;;;12.90;7.67;;;0.80;99.90;;;-141.84;100.00;115757.06;4981591;28;20227;-64
2024/01/28 02:52:36;;;;;;;10.77;7.13;;;0.80;99.90;;;-141.84;100.00;116290.06;4978681;28;20237;-64
2024/01/28 02:55:05;;;;;;;13.03;7.43;;;0.80;99.90;;;-141.84;100.00;115757.06;4979420;28;20284;-64
2024/01/28 02:57:35;;;;;;;15.00;7.43;;;0.80;99.90;;;-141.84;100.00;114158.53;4979997;28;20760;-64
2024/01/28 03:00:04;;;;;;;13.53;6.67;;;0.90;99.90;;;-141.84;100.00;113093.19;4973793;28;20228;-65
2024/01/28 03:02:32;;;;;;;11.90;6.77;;;0.80;99.90;;;-141.84;100.00;115224.16;4982742;28;20626;-65
2024/01/28 03:05:01;;;;;;;15.10;7.00;;;0.80;99.90;;;-141.84;100.00;115757.06;4978141;28;20604;-64
2024/01/28 03:07:29;;;;;;;13.33;7.00;;;0.80;99.90;;;-141.84;100.00;111761.88;4981527;28;20247;-64
2024/01/28 03:09:58;;;;;;;12.87;6.40;;;0.90;99.90;;;-141.84;100.00;110431.03;4981093;28;20231;-64
2024/01/28 03:12:26;;;;;;;16.53;7.53;;;0.80;99.90;;;-141.84;100.00;112294.34;4979541;28;20231;-65
2024/01/28 03:14:55;;;;;;;14.40;7.63;;;0.70;99.90;;;-141.84;100.00;114957.72;4985333;28;20231;-63
2024/01/28 03:17:24;;;;;;;10.77;6.60;;;0.70;99.90;;;-141.84;100.00;115490.59;4978970;28;20252;-63
2024/01/28 03:19:52;;;;;;;14.33;6.90;;;0.70;99.90;;;-141.84;100.00;116290.06;4980071;28;20245;-65
2024/01/28 03:22:20;;;;;;;12.40;6.60;;;0.60;99.90;;;-141.84;100.00;117356.25;4978968;28;20281;-65
2024/01/28 03:24:51;;;;;;;12.90;7.13;;;0.50;99.90;;;-141.84;100.00;118422.72;4981373;28;20263;-64
2024/01/28 03:27:19;;;;;;;14.83;6.43;;;0.50;99.90;;;-141.84;100.00;118956.03;4979847;28;20231;-64
2024/01/28 03:29:48;;;;;;;12.47;7.10;;;0.50;99.90;;;-141.84;100.00;119224.81;4978369;28;20219;-63
2024/01/28 03:32:17;;;;;;;13.97;7.27;;;0.50;99.90;;;-141.84;100.00;119224.81;4978668;28;20302;-64
2024/01/28 03:34:46;;;;;;;16.70;8.17;;;0.60;99.90;;;-141.84;100.00;119222.75;4973078;28;20227;-63
2024/01/28 03:37:14;;;;;;;11.07;7.40;;;0.60;99.90;;;-141.84;100.00;119222.75;4980523;28;20222;-64
2024/01/28 03:39:43;;;;;;;15.33;7.40;;;0.60;99.90;;;-141.84;100.00;118956.03;4979553;28;20235;-65
2024/01/28 03:42:11;;;;;;;12.40;7.37;;;0.70;99.90;;;-141.84;100.00;118956.03;4973420;28;20306;-65
2024/01/28 03:44:40;;;;;;;12.53;7.13;;;0.60;99.90;;;-141.84;100.00;119222.75;4981280;28;20214;-64
2024/01/28 03:47:08;;;;;;;11.17;6.50;;;0.60;99.90;;;-141.84;100.00;119222.75;4979854;28;20224;-64
2024/01/28 03:49:37;;;;;;;13.23;7.00;;;0.60;99.90;;;-141.84;100.00;119222.75;4977541;28;20259;-64
2024/01/28 03:52:06;;;;;;;11.90;6.50;;;0.60;99.90;;;-141.84;100.00;118956.03;4983792;28;20223;-64
2024/01/28 03:54:35;;;;;;;15.53;7.10;;;0.60;99.90;;;-141.84;100.00;118956.03;4979759;28;20236;-64
2024/01/28 03:57:04;;;;;;;18.23;6.63;;;0.60;99.90;;;-141.84;100.00;117889.44;4983985;28;20232;-64
2024/01/28 03:59:32;;;;;;;13.97;7.30;;;0.70;99.90;;;-141.84;100.00;117089.69;4980539;28;20207;-64
2024/01/28 04:02:02;;;;;;;15.87;7.67;;;0.80;99.90;;;-141.84;100.00;115757.06;4980163;28;20224;-63
2024/01/28 04:04:31;;;;;;;11.97;7.07;;;0.80;99.90;;;-141.84;100.00;114957.72;4980023;28;20219;-63
2024/01/28 04:07:00;;;;;;;12.07;6.77;;;0.70;99.90;;;-141.84;100.00;115490.59;4973946;28;20224;-64
2024/01/28 04:09:29;;;;;;;13.10;6.93;;;0.70;99.90;;;-141.84;100.00;115490.59;4976655;28;20787;-64
2024/01/28 04:11:57;;;;;;;11.80;6.97;;;0.80;99.90;;;-141.84;100.00;114691.31;4974673;28;20207;-64
2024/01/28 04:14:26;;;;;;;13.20;6.70;;;0.80;99.90;;;-141.84;100.00;114158.53;4981418;28;20232;-64
2024/01/28 04:16:54;;;;;;;12.83;6.77;;;0.70;99.90;;;-141.84;100.00;114691.31;4981501;28;20223;-64
2024/01/28 04:19:22;;;;;;;13.17;6.40;;;0.70;99.90;;;-141.84;100.00;115757.06;4981224;28;20224;-63
2024/01/28 04:21:51;;;;;;;15.60;7.30;;;0.60;99.90;;;-141.84;100.00;116290.06;4983015;28;20278;-64
2024/01/28 04:24:20;;;;;;;12.43;6.97;;;0.60;99.90;;;-141.84;100.00;116823.13;4984144;28;20297;-64
2024/01/28 04:26:49;;;;;;;11.93;6.93;;;0.60;99.90;;;-141.84;100.00;117356.25;4984412;28;20235;-64
2024/01/28 04:29:17;;;;;;;10.30;6.40;;;0.60;99.90;;;-141.84;100.00;117356.25;4975722;28;20672;-65
2024/01/28 04:31:45;;;;;;;11.63;6.93;;;0.60;99.90;;;-141.84;100.00;117356.25;4984571;28;20662;-64
2024/01/28 04:34:14;;;;;;;13.43;7.20;;;0.60;99.90;;;-141.84;100.00;117089.69;4984062;28;20250;-65
2024/01/28 04:36:42;;;;;;;10.07;6.50;;;0.50;99.90;;;-141.84;100.00;117356.25;4981216;28;20321;-63
2024/01/28 04:39:10;;;;;;;12.87;6.80;;;0.50;99.90;;;-141.84;100.00;117889.44;4980592;28;20717;-63
2024/01/28 04:41:40;;;;;;;12.57;6.77;;;0.50;99.90;;;-141.84;100.00;117356.25;4981922;28;20277;-64
2024/01/28 04:44:09;;;;;;;11.50;6.43;;;0.50;99.90;;;-141.84;100.00;116290.06;4974326;28;20308;-64
2024/01/28 04:46:38;;;;;;;9.93;6.47;;;0.60;99.90;;;-141.84;100.00;116023.56;4985357;28;20234;-64
2024/01/28 04:49:06;;;;;;;12.13;6.70;;;0.60;99.90;;;-141.84;100.00;115757.06;4988264;28;20605;-65
2024/01/28 04:51:34;;;;;;;14.63;7.37;;;0.60;99.90;;;-141.84;100.00;116290.06;4983242;28;20282;-64
2024/01/28 04:54:03;;;;;;;12.27;7.40;;;0.50;99.90;;;-141.84;100.00;115757.06;4975937;28;20283;-63
2024/01/28 04:56:31;;;;;;;16.67;7.27;;;0.50;99.90;;;-141.84;100.00;115490.59;4986972;28;20608;-63
2024/01/28 04:59:02;;;;;;;9.57;6.77;;;0.50;99.90;;;-141.84;100.00;115757.06;4980127;28;20227;-64
2024/01/28 05:01:32;;;;;;;12.40;7.03;;;0.40;99.90;;;-141.84;100.00;116556.59;4980448;28;20442;-64
2024/01/28 05:04:01;;;;;;;11.30;7.00;;;0.40;99.90;;;-141.84;100.00;117089.69;4985794;28;20223;-64
2024/01/28 05:06:34;;;;;;;14.40;6.80;;;0.30;99.90;;;-141.84;100.00;117889.44;4979625;28;20276;-65
2024/01/28 05:09:04;;;;;;;10.47;6.97;;;0.40;99.90;;;-141.84;100.00;118422.72;4979985;28;20610;-64
2024/01/28 05:11:32;;;;;;;13.70;6.80;;;0.30;99.90;;;-141.84;100.00;118956.03;4987199;28;20291;-63
2024/01/28 05:14:04;;;;;;;11.60;7.00;;;0.30;99.90;;;-141.84;100.00;119222.75;4979840;28;20613;-64
2024/01/28 05:16:32;;;;;;;12.60;6.57;;;0.30;99.90;;;-141.84;100.00;119224.81;4979678;28;20227;-64
2024/01/28 05:19:01;;;;;;;12.93;7.40;;;0.30;99.90;;;-141.84;100.00;119224.81;4980755;28;20224;-64
2024/01/28 05:21:30;;;;;;;15.77;7.37;;;0.40;99.90;;;-141.84;100.00;118956.03;4987270;28;20728;-64
2024/01/28 05:24:00;;;;;;;12.60;7.30;;;0.40;99.90;;;-141.84;100.00;117356.25;4985557;28;20652;-64
2024/01/28 05:26:28;;;;;;;11.03;6.57;;;0.40;99.90;;;-141.84;100.00;116823.13;4991291;28;20227;-65
2024/01/28 05:29:02;;;;;;;13.97;6.97;;;0.40;99.90;;;-141.84;100.00;117889.44;4983704;28;20257;-64
2024/01/28 05:31:33;;;;;;;15.43;7.20;;;0.40;99.90;;;-141.84;100.00;117889.44;4982087;28;20712;-63
2024/01/28 05:34:02;;;;;;;12.80;6.83;;;0.40;99.90;;;-141.84;100.00;117889.44;4974370;28;20228;-64
2024/01/28 05:36:31;;;;;;;10.70;7.00;;;0.40;99.90;;;-141.84;100.00;118156.06;4980777;28;20227;-65
2024/01/28 05:39:00;;;;;;;16.30;7.10;;;0.40;99.90;;;-141.84;100.00;118689.38;4979727;28;20216;-64
2024/01/28 05:41:28;;;;;;;14.10;6.67;;;0.40;99.90;;;-141.84;100.00;118956.03;4979568;28;20289;-65
2024/01/28 05:43:56;;;;;;;14.00;6.90;;;0.40;99.90;;;-141.84;100.00;119222.75;4989870;28;20314;-65
2024/01/28 05:46:24;;;;;;;16.07;6.80;;;0.40;99.90;;;-141.84;100.00;119222.75;4982512;28;20299;-64
2024/01/28 05:48:55;;;;;;;13.90;6.57;;;0.40;99.90;;;-141.84;100.00;119222.75;4987537;28;20303;-63
2024/01/28 05:51:25;;;;;;;9.67;6.77;;;0.40;99.90;;;-141.84;100.00;118956.03;4978761;28;20794;-63
2024/01/28 05:53:54;;;;;;;11.83;6.87;;;0.40;99.90;;;-141.84;100.00;118956.03;4974889;28;20290;-64
2024/01/28 05:56:22;;;;;;;12.53;6.57;;;0.40;99.90;;;-141.84;100.00;118956.03;4979530;28;20315;-65
2024/01/28 05:58:50;;;;;;;16.90;7.13;;;0.30;99.90;;;-141.84;100.00;119222.75;4973541;28;20242;-64
2024/01/28 06:01:18;;;;;;;11.37;6.53;;;0.30;99.90;;;-141.84;100.00;119224.81;4984110;28;20294;-64
2024/01/28 06:03:47;;;;;;;11.43;6.67;;;0.20;99.90;;;-141.84;100.00;119224.81;4979754;28;20235;-64
2024/01/28 06:06:17;;;;;;;12.47;7.03;;;0.30;99.90;;;-141.84;100.00;118956.03;4980824;28;20621;-63
2024/01/28 06:08:45;;;;;;;13.13;6.97;;;0.40;99.90;;;-141.84;100.00;118956.03;4979424;28;20204;-64
2024/01/28 06:11:14;;;;;;;17.57;6.70;;;0.40;99.90;;;-141.84;100.00;118956.03;4979642;28;20291;-64
2024/01/28 06:13:42;;;;;;;11.17;6.67;;;0.40;99.90;;;-141.84;100.00;117889.44;4979052;28;20258;-64
2024/01/28 06:16:10;;;;;;;13.03;6.30;;;0.50;99.90;;;-141.84;100.00;117356.25;4979088;28;20226;-64
2024/01/28 06:18:43;;;;;;;10.80;6.33;;;0.50;99.90;;;-141.84;100.00;117622.84;4980413;28;20243;-64
2024/01/28 06:21:13;;;;;;;11.03;6.03;;;0.50;99.90;;;-141.84;100.00;118156.06;4984822;28;20241;-64
2024/01/28 06:23:44;;;;;;;11.07;5.70;;;0.40;99.90;;;-141.84;100.00;117889.44;4980032;28;20234;-64
2024/01/28 06:26:12;;;;;;;14.00;6.27;;;0.50;99.90;;;-141.84;100.00;116823.13;4971445;28;20249;-64
2024/01/28 06:28:40;;;;;;;9.90;5.37;;;0.50;99.90;;;-141.84;100.00;115757.06;4976836;28;20308;-63
2024/01/28 06:31:08;;;;;;;14.93;6.13;;;0.50;99.90;;;-141.84;100.00;115224.16;4980959;28;20727;-63
2024/01/28 06:33:37;;;;;;;9.30;5.83;;;0.50;99.90;;;-141.84;100.00;115757.06;4982443;28;20270;-64
2024/01/28 06:36:07;;;;;;;9.93;5.00;;;0.40;99.90;;;-141.84;100.00;116823.13;4982679;28;20223;-65
2024/01/28 06:38:35;;;;;;;12.80;5.63;;;0.40;99.90;;;-141.84;100.00;116823.13;4980510;28;20227;-65
2024/01/28 06:41:05;;;;;;;9.43;5.73;;;0.40;99.90;;;-141.84;100.00;116823.13;4979519;28;20753;-64
2024/01/28 06:43:33;;;;;;;8.93;5.20;;;0.50;99.90;;;-141.84;100.00;116023.56;4978536;28;20319;-64
2024/01/28 06:46:01;;;;;;;8.27;4.93;;;0.50;99.90;;;-141.84;100.00;115224.16;4983579;28;20726;-65
2024/01/28 06:48:29;;;;;;;11.93;5.83;;;0.50;99.90;;;-141.84;100.00;113359.50;4979937;28;20318;-64
2024/01/28 06:50:59;;;;;;;9.40;5.70;;;0.50;99.90;;;-141.84;100.00;111495.69;4980945;28;20198;-64
2024/01/28 06:53:27;;;;;;;9.23;5.50;;;0.60;99.90;;;-141.84;100.00;110431.03;4973591;28;20211;-64
2024/01/28 06:55:56;;;;;;;9.73;5.50;;;0.50;99.90;;;-141.84;100.00;109898.81;4982903;28;20289;-65
2024/01/28 06:58:25;;;;;;;12.77;5.80;;;0.50;99.90;;;-141.84;100.00;111229.50;4972542;28;20294;-64
2024/01/28 07:00:54;;;;;;;8.83;5.17;;;0.50;99.90;;;-141.84;100.00;112294.34;4971236;28;20309;-64
2024/01/28 07:03:22;;;;;;;9.57;5.33;;;0.50;99.90;;;-141.84;100.00;112028.13;4977112;28;20744;-64
2024/01/28 07:05:51;;;;;;;12.63;5.37;;;0.50;99.90;;;-141.84;100.00;111229.50;4986457;28;20196;-64
2024/01/28 07:08:19;;;;;;;11.50;5.73;;;0.50;99.90;;;-141.84;100.00;111495.69;4978856;28;20196;-63
2024/01/28 07:10:48;;;;;;;10.87;5.47;;;0.50;99.90;;;-141.84;100.00;112028.13;4984144;28;20277;-63
2024/01/28 07:13:16;;;;;;;9.60;5.20;;;0.50;99.90;;;-141.84;100.00;110963.31;4979174;28;20231;-65
2024/01/28 07:15:45;;;;;;;9.00;5.17;;;0.50;99.90;;;-141.84;100.00;110431.03;4978293;28;20228;-64
2024/01/28 07:18:14;;;;;;;8.07;4.57;;;0.50;99.90;;;-141.84;100.00;110963.31;4977815;28;20316;-63
2024/01/28 07:20:42;;;;;;;11.20;5.13;;;0.50;99.90;;;-141.84;100.00;110164.91;4980209;28;20203;-65
2024/01/28 07:23:10;;;;;;;10.63;5.70;;;0.50;99.90;;;-141.84;100.00;108834.56;4983131;28;20279;-63
2024/01/28 07:25:39;;;;;;;11.10;5.03;;;0.60;99.90;;;-141.84;99.70;106441.06;4977990;28;20244;-64
2024/01/28 07:28:07;;;;;;;9.70;5.13;;;0.70;99.90;;;-141.84;99.40;105111.94;4977960;28;20605;-63
2024/01/28 07:30:35;;;;;;;10.43;5.10;;;0.70;99.90;;;-141.84;99.79;105909.34;4978248;28;20231;-65
2024/01/28 07:33:08;;;;;;;9.27;5.17;;;0.80;99.90;;;-141.84;99.74;106175.19;4978258;28;20606;-63
2024/01/28 07:35:36;;;;;;;9.47;5.33;;;0.80;99.90;;;-141.84;98.97;104580.41;4963914;28;20195;-63
2024/01/28 07:38:05;;;;;;;9.97;5.00;;;0.90;99.90;;;-141.84;97.65;102455.00;4981100;28;20296;-63
2024/01/28 07:40:33;;;;;;;9.50;4.97;;;0.90;99.90;;;-141.84;96.52;99534.38;4979593;28;20230;-64
2024/01/28 07:43:02;;;;;;;10.13;5.80;;;1.00;99.90;;;-141.84;96.13;98738.19;4977231;28;20760;-64
2024/01/28 07:45:30;;;;;;;10.73;5.03;;;1.00;99.90;;;-141.84;91.96;89725.88;4977475;28;20216;-64
2024/01/28 07:47:58;;;;;;;11.23;4.93;;;1.10;99.90;;;-141.84;86.26;66229.97;4974759;28;20210;-63
2024/01/28 07:50:28;;;;;;;12.17;4.60;;;1.40;99.90;;;-141.84;84.04;51778.88;4984564;28;20206;-63
2024/01/28 07:52:56;;;;;;;9.37;5.20;;;1.50;99.90;;;-141.84;82.36;37753.97;4986850;28;20282;-63
2024/01/28 07:55:24;;;;;;;9.40;4.50;;;1.60;99.90;;;-141.84;81.84;32076.00;4974930;28;20657;-63
2024/01/28 07:57:53;;;;;;;8.37;4.90;;;1.70;99.90;;;-141.84;80.49;24735.25;4983822;28;20226;-64
2024/01/28 08:00:22;;;;;;;7.23;4.97;;;1.80;99.90;;;-141.84;82.92;37366.06;4983680;28;20318;-63
2024/01/28 08:02:50;;;;;;;10.97;5.17;;;1.80;99.90;;;-141.84;81.58;29288.00;4981495;28;20203;-62
2024/01/28 08:05:22;;;;;;;10.40;5.10;;;1.90;99.90;;;-141.84;82.33;35210.81;4982162;28;20184;-63
2024/01/28 08:07:52;;;;;;;10.13;4.90;;;1.90;99.90;;;-141.84;81.04;29601.75;4984524;28;20305;-63
2024/01/28 08:10:20;;;;;;;11.17;6.23;;;1.90;99.90;;;-141.84;79.61;21952.47;4976341;28;20219;-63
2024/01/28 08:12:48;;;;;;;8.80;4.87;;;2.00;99.90;;;-141.84;79.56;22603.22;4977734;28;20286;-64
2024/01/28 08:15:17;;;;;;;9.97;5.07;;;2.10;99.90;;;-141.84;79.15;21505.13;4982096;28;20307;-63
2024/01/28 08:17:46;;;;;;;8.73;4.77;;;2.10;99.90;;;-141.84;80.14;23410.75;4983861;28;20223;-62
2024/01/28 08:20:14;;;;;;;7.77;4.40;;;2.20;99.90;;;-141.84;78.75;21863.00;4984558;28;20258;-65
2024/01/28 08:22:42;;;;;;;11.10;5.00;;;2.30;99.90;;;-141.84;76.63;19135.09;4981868;28;20240;-63
2024/01/28 08:25:12;;;;;;;8.87;4.63;;;2.40;99.90;;;-141.84;76.18;18942.06;4983601;28;20247;-63
2024/01/28 08:27:41;;;;;;;9.10;4.87;;;2.50;99.90;;;-141.84;73.95;18458.50;4980199;28;20276;-64
2024/01/28 08:30:11;;;;;;;8.17;4.30;;;2.70;99.90;;;-141.84;74.61;18527.56;4989445;28;20224;-64
2024/01/28 08:32:39;;;;;;;7.83;4.20;;;2.70;99.90;;;-141.84;72.10;18379.25;4981924;28;20194;-63
2024/01/28 08:35:09;;;;;;;7.33;3.97;;;2.90;99.90;;;-141.84;71.27;18346.75;4981375;28;20674;-64
2024/01/28 08:37:37;;;;;;;9.47;5.00;;;3.10;99.90;;;-141.84;68.74;18326.44;4967785;28;20709;-64
2024/01/28 08:40:08;;;;;;;7.03;4.23;;;3.30;99.90;;;-141.84;66.49;18308.16;4980120;28;20737;-64
2024/01/28 08:42:38;;;;;;;8.60;4.30;;;3.50;99.90;;;-141.84;67.87;18350.81;4982156;28;20234;-64
2024/01/28 08:45:07;;;;;;;9.37;5.17;;;3.50;99.90;;;-141.84;67.58;18316.28;4984425;28;20256;-63
2024/01/28 08:47:35;;;;;;;11.63;5.57;;;3.50;99.90;;;-141.84;68.49;18330.50;4985478;28;20191;-64
2024/01/28 08:50:04;;;;;;;6.80;4.40;;;3.50;99.90;;;-141.84;70.26;18336.59;4991174;28;20230;-66
2024/01/28 08:52:33;;;;;;;10.40;4.87;;;3.50;99.90;;;-141.84;69.87;18389.41;4980115;28;20559;-64
2024/01/28 08:55:01;;;;;;;10.90;4.80;;;3.60;99.90;;;-141.84;67.86;18334.56;4982676;28;20781;-64
2024/01/28 08:57:29;;;;;;;8.30;4.43;;;3.60;99.90;;;-141.84;68.38;18322.38;4980672;28;20558;-64
2024/01/28 08:59:59;;;;;;;8.93;4.73;;;3.70;99.90;;;-141.84;67.25;18318.31;4979695;28;20205;-64
2024/01/28 09:02:27;;;;;;;9.13;4.13;;;3.70;99.90;;;-141.84;66.28;18306.13;4980912;28;20294;-65
2024/01/28 09:04:55;;;;;;;8.53;4.50;;;3.70;99.90;;;-141.84;66.33;18334.56;4982325;28;20695;-66
2024/01/28 09:07:23;;;;;;;7.40;3.93;;;3.70;99.90;;;-141.84;67.07;18352.84;4982871;28;20221;-63
2024/01/28 09:09:51;;;;;;;8.70;4.30;;;3.80;99.90;;;-141.84;66.76;18332.53;4982041;28;20253;-64
2024/01/28 09:12:20;;;;;;;9.60;4.30;;;3.80;99.90;;;-141.84;66.82;18371.13;4972047;28;20301;-65
2024/01/28 09:14:48;;;;;;;8.83;4.17;;;3.90;99.90;;;-141.84;65.76;18320.34;4980139;28;20288;-64
2024/01/28 09:17:17;;;;;;;7.53;4.00;;;3.80;99.90;;;-141.84;65.09;18356.91;4988485;28;20740;-64
2024/01/28 09:19:47;;;;;;;8.37;3.70;;;3.90;99.90;;;-141.84;65.23;18395.50;4980022;28;20238;-64
2024/01/28 09:22:15;;;;;;;4.87;3.40;;;4.00;99.90;;;-141.84;65.27;18367.06;4985701;28;20548;-64
2024/01/28 09:24:44;;;;;;;6.50;4.00;;;4.10;99.90;;;-141.84;64.74;18354.88;4980912;28;20819;-64
2024/01/28 09:27:12;;;;;;;8.30;3.80;;;4.10;99.90;;;-141.84;63.57;18389.41;4979240;28;20234;-64
2024/01/28 09:29:40;;;;;;;9.33;3.90;;;4.20;99.90;;;-141.84;63.31;18401.59;4979594;28;20207;-64
2024/01/28 09:32:09;;;;;;;11.37;4.20;;;4.30;99.90;;;-141.84;64.11;18338.63;4981566;28;20600;-63
2024/01/28 09:34:38;;;;;;;8.07;3.70;;;4.30;99.90;;;-141.84;62.84;18363.00;4978728;28;20229;-64
2024/01/28 09:37:08;;;;;;;7.20;4.40;;;4.50;99.90;;;-141.84;61.17;18387.38;4975950;28;20239;-65
2024/01/28 09:39:36;;;;;;;8.43;4.20;;;4.60;99.90;;;-141.84;61.10;18385.34;4975118;28;20251;-64
2024/01/28 09:42:17;;;;;;;9.97;4.03;;;4.70;99.90;;;-141.84;61.37;18405.66;4981783;28;20230;-64
2024/01/28 09:44:47;;;;;;;7.17;3.67;;;4.80;99.90;;;-141.84;61.88;18440.22;4981179;28;20211;-66
2024/01/28 09:47:17;;;;;;;7.70;4.17;;;4.90;99.90;;;-141.84;59.79;18428.03;4982422;28;20938;-65
2024/01/28 09:49:48;;;;;;;8.73;4.43;;;5.20;99.90;;;-141.84;56.34;18452.41;4982102;28;20247;-65
2024/01/28 09:52:17;;;;;;;5.90;3.67;;;5.50;99.90;;;-141.84;56.49;18495.06;4969918;28;20646;-66
2024/01/28 09:54:45;;;;;;;7.03;3.70;;;5.80;99.90;;;-141.84;56.32;18458.50;4980913;28;20223;-66
2024/01/28 09:57:15;;;;;;;7.30;3.37;;;5.80;99.90;;;-141.84;55.97;18462.56;4971672;28;20643;-66
2024/01/28 09:59:45;;;;;;;6.70;3.33;;;5.80;99.90;;;-141.84;56.72;18474.75;4966384;28;20228;-65
2024/01/28 10:02:17;;;;;;;6.67;3.57;;;5.70;99.90;;;-141.84;57.06;18434.13;4981392;28;20216;-66
2024/01/28 10:04:46;;;;;;;7.17;3.70;;;5.70;99.90;;;-141.84;57.20;18482.88;4985298;28;20679;-67
2024/01/28 10:07:15;;;;;;;6.63;3.40;;;5.70;99.90;;;-141.84;56.87;18460.53;4970441;28;20224;-67